Time;durP1;ratioP1;P1;durP2;ratioP2;P2;SDS_P1;SDS_P2;PMS_P1;PMS_P2;Temp;Humidity;BMP_temperature;BMP_pressure;BME280_temperature;BME280_humidity;BME280_pressure;Samples;Min_cycle;Max_cycle;Signal;HPM_P1;HPM_P2
2022/03/01 00:01:54;;;;;;;15.50;5.35;;;;;;;0.72;44.31;100863.53;5046253;28;20053;-73
2022/03/01 00:04:20;;;;;;;16.42;6.13;;;;;;;0.68;44.28;100863.91;5043215;28;20483;-74
2022/03/01 00:06:46;;;;;;;16.35;6.07;;;;;;;0.64;44.36;100859.06;5042550;28;20125;-73
2022/03/01 00:09:12;;;;;;;18.08;5.50;;;;;;;0.61;44.43;100859.44;5033582;28;20041;-74
2022/03/01 00:11:38;;;;;;;24.52;6.60;;;;;;;0.51;44.56;100846.22;5043201;28;20527;-72
2022/03/01 00:14:04;;;;;;;20.50;5.30;;;;;;;0.55;44.74;100851.06;5044518;28;20489;-74
2022/03/01 00:16:31;;;;;;;16.13;5.70;;;;;;;0.51;44.64;100855.13;5041340;28;20115;-72
2022/03/01 00:18:58;;;;;;;29.17;6.20;;;;;;;0.54;44.83;100852.06;5040807;28;20422;-72
2022/03/01 00:21:25;;;;;;;14.60;5.60;;;;;;;0.59;44.53;100850.69;5043907;28;20148;-73
2022/03/01 00:23:51;;;;;;;22.70;6.35;;;;;;;0.51;44.66;100849.75;5041119;28;20060;-72
2022/03/01 00:26:17;;;;;;;18.20;5.60;;;;;;;0.47;44.79;100844.91;5038661;28;20045;-72
2022/03/01 00:28:44;;;;;;;22.65;6.10;;;;;;;0.49;44.79;100853.66;5040018;28;20650;-73
2022/03/01 00:31:10;;;;;;;15.70;6.40;;;;;;;0.48;44.69;100858.19;5049557;28;20044;-73
2022/03/01 00:33:36;;;;;;;20.60;7.30;;;;;;;0.43;44.78;100852.53;5053153;28;20131;-72
2022/03/01 00:36:04;;;;;;;15.60;5.88;;;;;;;0.49;44.77;100853.66;5038142;28;20033;-73
2022/03/01 00:38:30;;;;;;;16.85;5.60;;;;;;;0.49;44.86;100846.41;5042166;28;20048;-72
2022/03/01 00:40:57;;;;;;;16.55;5.80;;;;;;;0.44;45.03;100845.28;5038871;28;20049;-71
2022/03/01 00:43:24;;;;;;;18.33;5.55;;;;;;;0.46;44.89;100843.22;5036770;28;20103;-74
2022/03/01 00:45:51;;;;;;;29.17;5.78;;;;;;;0.42;45.04;100837.41;5044429;28;20429;-73
2022/03/01 00:48:18;;;;;;;16.90;5.28;;;;;;;0.38;45.28;100834.22;5043289;28;20149;-73
2022/03/01 00:50:44;;;;;;;25.00;6.57;;;;;;;0.39;45.14;100841.28;5046423;28;20095;-73
2022/03/01 00:53:11;;;;;;;17.83;6.07;;;;;;;0.38;45.00;100831.53;5038416;28;20064;-74
2022/03/01 00:55:37;;;;;;;29.15;6.20;;;;;;;0.33;45.24;100833.94;5042234;28;20052;-73
2022/03/01 00:58:04;;;;;;;20.00;7.10;;;;;;;0.30;45.25;100820.81;5034410;28;20485;-74
2022/03/01 01:00:31;;;;;;;29.15;6.15;;;;;;;0.33;45.34;100825.03;5042466;28;20478;-72
2022/03/01 01:02:57;;;;;;;15.02;5.53;;;;;;;0.35;45.41;100833.75;5041820;28;20064;-73
2022/03/01 01:05:23;;;;;;;20.63;6.45;;;;;;;0.36;45.43;100821.97;5044773;28;20362;-73
2022/03/01 01:07:49;;;;;;;16.55;5.70;;;;;;;0.37;45.14;100829.88;5048886;28;20103;-74
2022/03/01 01:10:17;;;;;;;17.20;5.25;;;;;;;0.34;45.17;100824.84;5042367;28;20127;-73
2022/03/01 01:12:43;;;;;;;15.63;5.93;;;;;;;0.29;45.23;100821.84;5046765;28;20733;-74
2022/03/01 01:15:11;;;;;;;14.90;5.93;;;;;;;0.31;45.41;100819.81;5037706;28;20136;-74
2022/03/01 01:17:37;;;;;;;19.30;5.80;;;;;;;0.27;45.53;100823.88;5042705;28;20057;-73
2022/03/01 01:20:05;;;;;;;17.88;6.43;;;;;;;0.22;45.56;100826.31;5049341;28;20057;-73
2022/03/01 01:22:48;;;;;;;;;;;;;;;0.21;45.37;100825.44;5040639;28;20536;-74
2022/03/01 01:25:18;;;;;;;19.75;6.07;;;;;;;0.17;45.60;100817.94;5043751;28;19925;-73
2022/03/01 01:27:49;;;;;;;21.63;6.70;;;;;;;0.18;45.42;100831.19;5040927;28;20059;-74
2022/03/01 01:30:19;;;;;;;14.90;5.25;;;;;;;0.19;45.56;100826.66;5041593;28;20421;-74
2022/03/01 01:32:48;;;;;;;25.83;5.57;;;;;;;0.14;45.61;100813.75;5044454;28;20041;-72
2022/03/01 01:35:15;;;;;;;13.48;5.03;;;;;;;0.12;45.50;100819.31;5044918;28;20059;-74
2022/03/01 01:37:41;;;;;;;15.63;5.78;;;;;;;0.10;45.77;100828.59;5039021;28;20468;-74
2022/03/01 01:40:11;;;;;;;18.57;5.47;;;;;;;0.07;45.55;100821.72;5038383;28;20080;-73
2022/03/01 01:42:57;;;;;;;23.75;4.97;;;;;;;0.07;45.54;100823.53;5044403;28;20497;-73
2022/03/01 01:45:25;;;;;;;22.00;6.30;;;;;;;0.03;45.64;100823.09;5043414;28;20052;-74
2022/03/01 01:47:53;;;;;;;20.98;4.60;;;;;;;0.03;45.64;100823.09;5047405;28;20415;-75
2022/03/01 01:50:19;;;;;;;20.73;5.47;;;;;;;0.01;45.57;100819.75;5047654;28;20143;-75
2022/03/01 01:52:47;;;;;;;19.13;5.60;;;;;;;-0.03;45.61;100824.66;5044898;28;20139;-76
2022/03/01 01:55:18;;;;;;;22.98;6.03;;;;;;;-0.07;45.58;100822.47;5049234;28;20049;-78
2022/03/01 01:57:45;;;;;;;18.73;5.05;;;;;;;-0.08;45.76;100828.88;5038021;28;20057;-78
2022/03/01 02:00:13;;;;;;;14.07;5.13;;;;;;;-0.08;45.76;100831.56;5056169;28;20053;-78
2022/03/01 02:02:40;;;;;;;21.20;6.72;;;;;;;-0.11;45.73;100823.88;5033076;28;20098;-78
2022/03/01 02:05:07;;;;;;;27.70;5.87;;;;;;;-0.11;45.94;100827.38;5027500;28;20076;-78
2022/03/01 02:07:34;;;;;;;26.40;4.72;;;;;;;-0.08;45.60;100823.50;5043948;28;20049;-78
2022/03/01 02:10:00;;;;;;;13.50;5.03;;;;;;;-0.09;45.88;100829.91;5046738;28;20044;-78
2022/03/01 02:12:27;;;;;;;27.27;5.93;;;;;;;-0.11;45.79;100827.38;5017440;28;20432;-77
2022/03/01 02:14:53;;;;;;;13.13;4.68;;;;;;;-0.09;45.82;100824.53;5045679;28;20049;-78
2022/03/01 02:17:20;;;;;;;15.88;5.25;;;;;;;-0.12;45.77;100823.00;5041765;28;20517;-79
2022/03/01 02:19:47;;;;;;;17.45;5.30;;;;;;;-0.19;45.75;100819.38;5032784;28;20099;-77
2022/03/01 02:22:14;;;;;;;16.60;5.75;;;;;;;-0.12;46.04;100830.25;5044784;28;20056;-78
2022/03/01 02:24:40;;;;;;;18.08;5.70;;;;;;;-0.15;46.02;100821.53;5044915;28;20130;-78
2022/03/01 02:27:06;;;;;;;16.17;4.95;;;;;;;-0.21;45.86;100816.03;5037960;28;20544;-76
2022/03/01 02:29:33;;;;;;;21.55;6.22;;;;;;;-0.27;46.10;100814.91;5043066;28;20045;-78
2022/03/01 02:32:02;;;;;;;18.23;5.93;;;;;;;-0.23;46.25;100824.28;5040626;28;20049;-79
2022/03/01 02:34:28;;;;;;;17.60;5.38;;;;;;;-0.21;46.10;100833.00;5040023;28;20524;-79
2022/03/01 02:36:54;;;;;;;20.40;5.70;;;;;;;-0.25;46.48;100820.06;5048579;28;20103;-78
2022/03/01 02:39:21;;;;;;;20.58;5.85;;;;;;;-0.34;46.40;100814.78;5028707;28;20076;-80
2022/03/01 02:41:47;;;;;;;18.25;5.10;;;;;;;-0.34;46.25;100805.84;5047707;28;20091;-78
2022/03/01 02:44:14;;;;;;;16.52;5.20;;;;;;;-0.15;46.05;100832.28;5043591;28;20048;-79
2022/03/01 02:46:41;;;;;;;22.58;5.47;;;;;;;-0.15;45.99;100831.44;5049744;28;20056;-80
2022/03/01 02:49:09;;;;;;;14.70;5.95;;;;;;;-0.17;46.11;100828.94;5041698;28;20045;-80
2022/03/01 02:51:35;;;;;;;;;;;;;;;-0.19;46.06;100830.97;5050832;28;20045;-77
2022/03/01 02:54:02;;;;;;;23.55;4.97;;;;;;;-0.24;46.19;100827.97;5038372;28;20313;-78
2022/03/01 02:56:29;;;;;;;20.15;5.68;;;;;;;-0.35;45.93;100802.34;5048736;28;20095;-78
2022/03/01 02:58:55;;;;;;;18.88;5.90;;;;;;;-0.27;46.06;100822.09;5030490;28;20057;-78
2022/03/01 03:01:23;;;;;;;23.85;5.80;;;;;;;-0.24;46.12;100825.28;5049960;28;20079;-82
2022/03/01 03:03:53;;;;;;;19.90;5.60;;;;;;;-0.26;46.17;100824.63;5049598;28;20131;-83
2022/03/01 03:06:19;;;;;;;28.75;6.43;;;;;;;-0.29;46.19;100817.75;5012899;28;20040;-82
2022/03/01 03:08:46;;;;;;;25.13;7.40;;;;;;;-0.30;46.17;100823.31;5043612;28;20041;-79
2022/03/01 03:11:12;;;;;;;27.52;6.35;;;;;;;-0.34;46.27;100817.47;5041724;28;20097;-77
2022/03/01 03:13:38;;;;;;;25.60;7.28;;;;;;;-0.40;46.14;100812.78;5047231;28;20413;-75
2022/03/01 03:16:05;;;;;;;42.17;8.27;;;;;;;-0.40;46.32;100809.28;5045179;28;20056;-77
2022/03/01 03:18:31;;;;;;;44.43;7.20;;;;;;;-0.39;46.32;100813.63;5046428;28;20572;-77
2022/03/01 03:20:57;;;;;;;27.25;6.65;;;;;;;-0.39;46.32;100816.31;5062884;28;20156;-77
2022/03/01 03:23:24;;;;;;;36.35;6.57;;;;;;;-0.44;46.42;100812.31;5044380;28;20041;-77
2022/03/01 03:25:50;;;;;;;29.23;6.75;;;;;;;-0.39;46.19;100810.94;5041861;28;20059;-76
2022/03/01 03:28:16;;;;;;;27.80;7.32;;;;;;;-0.39;46.29;100813.63;5039549;28;20045;-77
2022/03/01 03:30:43;;;;;;;19.80;6.38;;;;;;;-0.39;46.44;100821.69;5043653;28;20221;-77
2022/03/01 03:33:10;;;;;;;19.40;6.55;;;;;;;-0.43;46.44;100814.00;5013766;28;20120;-77
2022/03/01 03:35:36;;;;;;;21.83;6.50;;;;;;;-0.44;46.34;100804.25;5041906;28;20310;-76
2022/03/01 03:38:03;;;;;;;28.67;7.30;;;;;;;-0.47;46.28;100807.31;5022901;28;20078;-78
2022/03/01 03:40:29;;;;;;;17.33;6.90;;;;;;;-0.47;46.21;100806.44;5033079;28;20072;-77
2022/03/01 03:42:55;;;;;;;25.95;6.43;;;;;;;-0.47;46.34;100796.56;5048080;28;20091;-78
2022/03/01 03:45:23;;;;;;;26.23;6.32;;;;;;;-0.48;46.12;100805.59;5038417;28;20388;-78
2022/03/01 03:47:50;;;;;;;28.00;7.57;;;;;;;-0.49;46.35;100803.09;5015298;28;20048;-78
2022/03/01 03:50:16;;;;;;;25.07;6.40;;;;;;;-0.49;46.30;100803.94;5047424;28;20425;-78
2022/03/01 03:52:42;;;;;;;22.30;6.28;;;;;;;-0.49;46.14;100809.31;5036967;28;20057;-80
2022/03/01 03:55:10;;;;;;;31.85;7.45;;;;;;;-0.51;46.18;100807.81;5037945;28;20167;-80
2022/03/01 03:57:36;;;;;;;24.75;5.97;;;;;;;-0.49;46.03;100816.53;5046182;28;20513;-78
2022/03/01 04:00:08;;;;;;;22.85;6.40;;;;;;;-0.60;46.05;100798.97;5045767;28;20403;-78
2022/03/01 04:02:35;;;;;;;21.20;7.20;;;;;;;-0.54;46.19;100806.31;5047155;28;20514;-77
2022/03/01 04:05:02;;;;;;;22.27;6.25;;;;;;;-0.70;46.09;100785.78;5047123;28;20045;-78
2022/03/01 04:07:30;;;;;;;23.60;7.18;;;;;;;-0.58;46.20;100805.00;5031264;28;20472;-77
2022/03/01 04:09:55;;;;;;;29.13;6.75;;;;;;;-0.61;46.27;100805.38;5045498;28;20079;-78
2022/03/01 04:12:25;;;;;;;30.88;6.05;;;;;;;-0.67;46.14;100798.00;5031069;28;20072;-83
2022/03/01 04:14:53;;;;;;;33.80;6.35;;;;;;;-0.60;46.22;100813.22;5011490;28;20147;-82
2022/03/01 04:17:19;;;;;;;28.50;6.22;;;;;;;-0.70;45.97;100792.97;5038812;28;20049;-83
2022/03/01 04:19:48;;;;;;;32.63;6.60;;;;;;;-0.62;46.17;100811.75;5026252;28;20064;-82
2022/03/01 04:22:19;;;;;;;25.85;7.03;;;;;;;-0.71;46.17;100792.13;5044624;28;20059;-82
2022/03/01 04:24:45;;;;;;;22.48;6.10;;;;;;;-0.63;46.21;100810.06;5030979;28;20052;-81
2022/03/01 04:27:15;;;;;;;26.30;5.80;;;;;;;-0.63;46.03;100810.91;5029401;28;20114;-81
2022/03/01 04:29:41;;;;;;;31.35;6.53;;;;;;;-0.64;45.97;100811.06;5047962;28;20061;-79
2022/03/01 04:32:07;;;;;;;21.67;6.30;;;;;;;-0.64;46.04;100811.06;5045802;28;20520;-85
2022/03/01 04:34:34;;;;;;;22.33;5.90;;;;;;;-0.78;46.03;100789.34;5048995;28;20059;-85
2022/03/01 04:37:00;;;;;;;19.63;6.28;;;;;;;-0.63;45.89;100818.13;5046254;28;20055;-80
2022/03/01 04:39:30;;;;;;;27.48;6.50;;;;;;;-0.63;45.79;100810.06;5058175;28;20076;-82
2022/03/01 04:41:57;;;;;;;18.35;5.82;;;;;;;-0.61;45.38;100811.56;5039745;28;20110;-78
2022/03/01 04:44:23;;;;;;;22.33;5.63;;;;;;;-0.56;45.51;100816.41;5047043;28;20121;-78
2022/03/01 04:46:50;;;;;;;25.67;6.70;;;;;;;-0.54;45.54;100810.88;5035962;28;20136;-83
2022/03/01 04:53:05;;;;;;;24.38;5.90;;;;;;;-1.21;45.24;100719.06;5000320;28;20208;-80
2022/03/01 04:55:57;;;;;;;19.45;6.95;;;;;;;-0.92;45.23;100769.41;5008678;28;20041;-82
2022/03/01 04:58:29;;;;;;;25.88;6.90;;;;;;;-0.52;45.36;100816.91;5042397;28;20540;-78
2022/03/01 05:01:41;;;;;;;39.67;6.88;;;;;;;-1.30;45.32;100684.19;5057449;28;20048;-79
2022/03/01 05:12:29;;;;;;;27.70;5.80;;;;;;;0.37;43.45;100823.63;5049734;23;20173;-81
2022/03/01 05:15:11;;;;;;;28.02;6.80;;;;;;;-0.29;43.49;100704.84;5039549;28;20052;-78
2022/03/01 05:18:04;;;;;;;38.10;9.73;;;;;;;-0.13;44.57;100775.63;5041394;28;20126;-82
2022/03/01 05:20:59;;;;;;;57.55;9.25;;;;;;;-0.11;44.76;100796.97;5040855;28;20052;-77
2022/03/01 05:23:27;;;;;;;41.22;9.25;;;;;;;0.04;44.94;100821.22;5006491;28;20427;-74
2022/03/01 05:25:53;;;;;;;51.03;15.70;;;;;;;0.12;44.92;100824.69;5042124;28;20053;-73
2022/03/01 05:28:21;;;;;;;45.80;13.33;;;;;;;0.17;44.76;100824.16;5045639;28;20086;-73
2022/03/01 05:30:47;;;;;;;35.88;11.20;;;;;;;0.20;44.90;100820.28;5012325;28;20057;-74
2022/03/01 05:33:13;;;;;;;41.78;11.57;;;;;;;0.11;44.95;100790.72;5041828;28;20041;-74
2022/03/01 05:35:39;;;;;;;50.75;12.07;;;;;;;0.32;44.96;100816.13;5028467;28;20053;-74
2022/03/01 05:38:07;;;;;;;49.08;10.80;;;;;;;0.47;44.91;100823.38;5044167;28;20057;-74
2022/03/01 05:40:33;;;;;;;38.22;11.48;;;;;;;0.59;44.54;100823.78;5039233;28;20057;-73
2022/03/01 05:43:00;;;;;;;45.80;11.20;;;;;;;0.69;44.46;100817.09;5038821;28;20069;-75
2022/03/01 05:45:27;;;;;;;33.50;10.20;;;;;;;0.82;44.23;100823.72;5014076;28;20061;-74
2022/03/01 05:47:54;;;;;;;40.20;10.02;;;;;;;0.82;44.17;100818.31;5018701;28;20152;-73
2022/03/01 05:50:20;;;;;;;43.88;10.68;;;;;;;0.92;44.16;100815.34;5038361;28;20080;-75
2022/03/01 05:52:47;;;;;;;44.63;11.50;;;;;;;1.00;43.89;100807.16;5035688;28;20047;-73
2022/03/01 05:55:14;;;;;;;40.00;10.37;;;;;;;1.10;43.90;100817.69;5035979;28;20044;-74
2022/03/01 05:57:40;;;;;;;49.40;11.30;;;;;;;1.20;43.90;100826.28;5059372;28;20632;-73
2022/03/01 06:00:09;;;;;;;28.75;10.93;;;;;;;1.09;43.92;100803.34;5061098;28;20072;-74
2022/03/01 06:02:41;;;;;;;34.13;10.73;;;;;;;1.31;43.67;100818.75;5061077;28;20044;-75
2022/03/01 06:05:08;;;;;;;35.30;10.38;;;;;;;1.44;43.52;100824.31;5076118;28;20052;-74
2022/03/01 06:07:34;;;;;;;46.63;11.07;;;;;;;1.58;43.39;100829.84;5066253;28;20521;-74
2022/03/01 06:10:00;;;;;;;50.40;12.85;;;;;;;1.69;43.03;100829.34;5059003;28;20393;-74
2022/03/01 06:12:26;;;;;;;36.60;10.05;;;;;;;1.82;42.90;100829.50;5064467;28;20044;-73
2022/03/01 06:14:53;;;;;;;42.28;10.70;;;;;;;1.92;42.85;100834.56;5027711;28;20052;-73
2022/03/01 06:17:19;;;;;;;56.42;12.02;;;;;;;1.96;42.98;100829.63;5062982;28;20057;-73
2022/03/01 06:19:45;;;;;;;41.95;10.13;;;;;;;1.97;42.51;100828.59;5060699;28;20079;-72
2022/03/01 06:22:13;;;;;;;49.70;9.90;;;;;;;1.92;42.27;100796.78;5059178;28;20140;-73
2022/03/01 06:24:41;;;;;;;64.88;11.00;;;;;;;2.19;42.24;100821.34;5079707;28;20044;-73
2022/03/01 06:27:07;;;;;;;37.55;8.35;;;;;;;2.28;42.04;100818.50;5058998;28;20182;-74
2022/03/01 06:29:34;;;;;;;53.85;9.32;;;;;;;2.30;41.81;100816.44;5074934;28;20402;-74
2022/03/01 06:32:01;;;;;;;33.95;8.77;;;;;;;2.38;41.68;100821.69;5047498;28;20425;-74
2022/03/01 06:34:28;;;;;;;38.15;7.78;;;;;;;2.47;41.57;100811.56;5050000;28;20048;-74
2022/03/01 06:36:54;;;;;;;62.15;8.80;;;;;;;2.49;41.46;100817.63;5067037;28;20051;-73
2022/03/01 06:39:20;;;;;;;22.83;8.25;;;;;;;2.57;41.38;100817.47;5070584;28;20051;-76
2022/03/01 06:41:46;;;;;;;32.92;8.07;;;;;;;2.66;41.16;100816.31;5071045;28;20056;-74
2022/03/01 06:44:12;;;;;;;42.20;9.45;;;;;;;2.82;41.12;100822.44;5064100;28;20078;-73
2022/03/01 06:46:38;;;;;;;31.67;8.32;;;;;;;2.93;41.05;100821.84;5067856;28;20090;-73
2022/03/01 06:49:05;;;;;;;44.97;9.13;;;;;;;2.95;41.19;100810.88;5068114;28;20052;-73
2022/03/01 06:51:30;;;;;;;36.67;8.60;;;;;;;3.10;40.72;100824.22;5081157;28;20501;-73
2022/03/01 06:53:57;;;;;;;35.10;8.25;;;;;;;3.23;40.41;100831.59;5066149;28;20094;-74
2022/03/01 06:56:23;;;;;;;36.83;9.82;;;;;;;3.34;40.28;100825.59;5062992;28;20051;-75
2022/03/01 06:58:49;;;;;;;39.08;9.48;;;;;;;3.44;40.52;100829.81;5061842;28;20572;-75
2022/03/01 07:01:15;;;;;;;26.20;7.32;;;;;;;3.52;40.06;100835.03;5083163;28;20068;-73
2022/03/01 07:03:42;;;;;;;39.22;7.82;;;;;;;3.55;39.85;100838.16;5046978;28;20072;-73
2022/03/01 07:06:08;;;;;;;21.23;7.55;;;;;;;3.64;39.97;100832.56;5066364;28;20051;-75
2022/03/01 07:08:34;;;;;;;35.15;9.48;;;;;;;3.77;39.53;100826.34;5062730;28;20068;-74
2022/03/01 07:11:01;;;;;;;37.20;8.20;;;;;;;3.88;39.51;100825.78;5049079;28;20106;-73
2022/03/01 07:13:27;;;;;;;24.88;7.25;;;;;;;3.89;39.30;100824.72;5083944;28;20501;-74
2022/03/01 07:15:53;;;;;;;27.70;7.15;;;;;;;4.04;39.03;100829.94;5081585;28;20543;-74
2022/03/01 07:18:19;;;;;;;28.42;7.95;;;;;;;4.14;38.86;100828.72;5064100;28;20064;-73
2022/03/01 07:20:45;;;;;;;30.58;7.22;;;;;;;4.25;38.98;100830.81;5061360;28;20048;-73
2022/03/01 07:23:11;;;;;;;30.67;7.80;;;;;;;4.32;39.11;100818.09;5065828;28;20041;-72
2022/03/01 07:25:38;;;;;;;18.35;6.43;;;;;;;4.49;39.04;100825.81;5067955;28;20045;-73
2022/03/01 07:28:05;;;;;;;16.90;6.60;;;;;;;4.61;38.75;100837.69;5067236;28;20045;-70
2022/03/01 07:30:34;;;;;;;27.63;6.18;;;;;;;4.66;38.85;100826.22;5064495;28;20075;-71
2022/03/01 07:33:01;;;;;;;20.25;7.20;;;;;;;4.80;38.63;100838.69;5065069;28;20056;-71
2022/03/01 07:35:27;;;;;;;27.60;6.95;;;;;;;4.91;38.73;100839.09;5067007;28;20052;-72
2022/03/01 07:37:54;;;;;;;21.80;6.82;;;;;;;5.01;38.32;100839.50;5062564;28;20057;-72
2022/03/01 07:40:22;;;;;;;29.90;6.90;;;;;;;5.15;37.87;100847.59;5065039;28;20041;-71
2022/03/01 07:42:49;;;;;;;17.83;6.30;;;;;;;5.25;37.74;100845.28;5062032;28;20143;-73
2022/03/01 07:45:16;;;;;;;30.25;6.93;;;;;;;5.29;37.31;100832.09;5058576;28;20151;-75
2022/03/01 07:47:43;;;;;;;16.88;5.28;;;;;;;5.48;36.75;100843.94;5069496;28;20102;-75
2022/03/01 07:50:09;;;;;;;22.63;6.10;;;;;;;5.60;36.56;100849.50;5049671;28;20500;-74
2022/03/01 07:52:36;;;;;;;24.70;7.67;;;;;;;5.74;36.19;100836.72;5065749;28;20504;-74
2022/03/01 07:55:03;;;;;;;22.02;6.75;;;;;;;5.87;35.77;100836.66;5066034;28;20097;-73
2022/03/01 07:57:29;;;;;;;17.45;6.47;;;;;;;5.97;35.73;100828.84;5060301;28;20049;-73
2022/03/01 07:59:55;;;;;;;23.33;6.68;;;;;;;6.09;35.27;100826.31;5053324;28;20046;-71
2022/03/01 08:02:22;;;;;;;19.05;6.65;;;;;;;6.20;34.97;100834.78;5067633;28;20079;-74
2022/03/01 08:04:48;;;;;;;18.67;6.13;;;;;;;6.25;34.70;100829.53;5068201;28;20054;-74
2022/03/01 08:07:14;;;;;;;18.17;5.70;;;;;;;6.28;34.73;100812.78;5065855;28;20076;-73
2022/03/01 08:09:41;;;;;;;18.75;6.22;;;;;;;6.34;34.72;100820.03;5067836;28;20052;-74
2022/03/01 08:12:08;;;;;;;13.15;5.18;;;;;;;6.43;34.47;100817.88;5051604;28;20459;-73
2022/03/01 08:14:35;;;;;;;13.43;5.65;;;;;;;6.50;34.25;100823.25;5080832;28;20102;-74
2022/03/01 08:17:02;;;;;;;19.48;5.90;;;;;;;6.58;34.10;100825.69;5067321;28;20059;-74
2022/03/01 08:19:29;;;;;;;21.45;5.38;;;;;;;6.64;33.94;100815.81;5084134;28;20097;-73
2022/03/01 08:21:56;;;;;;;19.17;5.07;;;;;;;6.67;33.75;100818.91;5065138;28;20056;-73
2022/03/01 08:24:22;;;;;;;14.95;5.45;;;;;;;6.74;33.52;100812.59;5051427;28;20052;-74
2022/03/01 08:26:49;;;;;;;15.35;4.88;;;;;;;6.86;33.50;100818.91;5077449;28;20045;-75
2022/03/01 08:29:16;;;;;;;16.90;4.93;;;;;;;6.98;33.23;100819.03;5064067;28;20064;-74
2022/03/01 08:31:42;;;;;;;14.20;4.85;;;;;;;7.06;33.07;100813.28;5059355;28;20070;-75
2022/03/01 08:34:08;;;;;;;18.27;5.03;;;;;;;7.15;32.86;100818.44;5059612;28;20041;-75
2022/03/01 08:36:36;;;;;;;17.23;4.78;;;;;;;7.19;32.77;100817.75;5057396;28;20044;-76
2022/03/01 08:39:03;;;;;;;14.15;4.47;;;;;;;7.27;32.45;100811.16;5061747;28;20562;-76
2022/03/01 08:41:29;;;;;;;26.83;6.15;;;;;;;7.41;32.46;100821.88;5063822;28;20517;-76
2022/03/01 08:43:55;;;;;;;20.60;5.03;;;;;;;7.54;32.14;100818.97;5063990;28;20041;-76
2022/03/01 08:46:23;;;;;;;21.17;4.80;;;;;;;7.70;32.07;100822.13;5077432;28;20044;-73
2022/03/01 08:48:53;;;;;;;18.92;4.78;;;;;;;7.85;31.80;100813.56;5064947;28;20052;-75
2022/03/01 08:51:21;;;;;;;16.42;4.65;;;;;;;8.05;31.45;100813.25;5045713;28;20059;-74
2022/03/01 08:53:47;;;;;;;;;;;;;;;8.23;31.36;100818.63;5071138;28;20056;-74
2022/03/01 08:56:15;;;;;;;14.70;4.45;;;;;;;8.36;31.17;100816.75;5066795;28;19928;-75
2022/03/01 08:58:42;;;;;;;15.68;4.95;;;;;;;8.45;30.91;100825.41;5063229;28;20493;-73
2022/03/01 09:01:08;;;;;;;21.20;4.88;;;;;;;8.36;30.75;100808.56;5066082;28;20044;-76
2022/03/01 09:03:36;;;;;;;16.33;5.35;;;;;;;8.58;30.50;100822.47;5054555;28;20051;-74
2022/03/01 09:06:04;;;;;;;17.55;4.63;;;;;;;8.67;30.37;100819.41;5069130;28;20048;-73
2022/03/01 09:08:30;;;;;;;21.70;5.25;;;;;;;8.80;30.23;100824.63;5067925;28;20053;-73
2022/03/01 09:10:57;;;;;;;20.73;5.18;;;;;;;8.85;29.83;100815.72;5058642;28;20055;-71
2022/03/01 09:13:23;;;;;;;21.02;5.78;;;;;;;9.00;29.79;100820.69;5071103;28;20115;-71
2022/03/01 09:15:49;;;;;;;15.73;5.40;;;;;;;9.07;29.68;100822.22;5060713;28;20059;-72
2022/03/01 09:18:15;;;;;;;20.65;5.65;;;;;;;9.21;29.47;100819.22;5069703;28;20314;-70
2022/03/01 09:20:50;;;;;;;16.65;5.90;;;;;;;9.39;29.12;100812.78;5063692;28;20106;-72
2022/03/01 09:23:17;;;;;;;21.00;6.13;;;;;;;9.47;29.08;100814.28;5065929;28;20471;-72
2022/03/01 09:25:43;;;;;;;23.98;6.15;;;;;;;9.61;28.92;100815.66;5070146;28;20131;-72
2022/03/01 09:28:10;;;;;;;14.35;5.70;;;;;;;9.72;28.86;100813.13;5063530;28;20179;-71
2022/03/01 09:30:36;;;;;;;22.00;5.70;;;;;;;9.80;28.36;100801.81;5069259;28;20528;-76
2022/03/01 09:33:02;;;;;;;19.80;6.25;;;;;;;9.95;28.22;100797.69;5086216;28;20151;-74
2022/03/01 09:35:29;;;;;;;16.27;5.83;;;;;;;10.02;28.05;100796.47;5070550;28;20052;-74
2022/03/01 09:37:55;;;;;;;20.17;5.47;;;;;;;10.11;27.74;100793.31;5059372;28;20068;-74
2022/03/01 09:40:21;;;;;;;19.42;5.80;;;;;;;10.26;27.66;100799.03;5062853;28;20341;-75
2022/03/01 09:42:50;;;;;;;19.58;6.78;;;;;;;10.43;27.40;100788.13;5076952;28;20080;-74
2022/03/01 09:45:16;;;;;;;16.52;5.22;;;;;;;10.70;27.05;100789.34;5062504;28;20036;-74
2022/03/01 09:47:43;;;;;;;21.25;5.93;;;;;;;10.88;26.84;100780.84;5057386;28;20132;-72
2022/03/01 09:50:11;;;;;;;21.15;6.47;;;;;;;11.10;26.38;100793.72;5054434;28;20053;-71
2022/03/01 09:52:38;;;;;;;19.50;6.03;;;;;;;11.28;25.96;100784.34;5059734;28;20036;-71
2022/03/01 09:55:06;;;;;;;21.90;6.27;;;;;;;11.47;25.74;100793.06;5060820;28;20040;-72
2022/03/01 09:57:32;;;;;;;22.00;5.70;;;;;;;11.69;25.31;100778.50;5060281;28;20338;-73
2022/03/01 09:59:58;;;;;;;22.73;6.30;;;;;;;11.88;25.19;100776.22;5058612;28;20045;-72
2022/03/01 10:02:33;;;;;;;19.60;5.85;;;;;;;11.97;24.81;100781.25;5063244;28;20055;-71
2022/03/01 10:05:01;;;;;;;23.92;5.88;;;;;;;12.13;24.91;100774.84;5064902;28;20386;-72
2022/03/01 10:07:30;;;;;;;18.33;5.82;;;;;;;12.31;24.49;100773.59;5050679;28;20045;-71
2022/03/01 10:10:04;;;;;;;16.38;5.15;;;;;;;12.53;24.00;100771.81;5055126;28;20159;-73
2022/03/01 10:12:30;;;;;;;24.23;5.28;;;;;;;12.70;23.92;100769.72;5076418;28;20504;-73
2022/03/01 10:15:02;;;;;;;17.35;4.53;;;;;;;12.96;23.57;100763.56;5067941;28;20048;-73
2022/03/01 10:17:39;;;;;;;19.92;5.15;;;;;;;13.03;22.83;100742.19;5071502;28;20404;-72
2022/03/01 10:20:07;;;;;;;23.65;4.95;;;;;;;13.34;22.91;100756.03;5072801;28;20118;-72
2022/03/01 10:22:36;;;;;;;26.70;5.30;;;;;;;13.60;22.61;100761.63;5087999;28;20603;-71
2022/03/01 10:25:05;;;;;;;18.38;5.07;;;;;;;13.82;22.26;100755.88;5072172;28;20139;-73
2022/03/01 10:27:32;;;;;;;18.42;4.75;;;;;;;14.09;22.08;100751.22;5088235;28;20052;-72
2022/03/01 10:29:58;;;;;;;18.23;4.75;;;;;;;14.25;21.58;100746.50;5073762;28;20550;-72
2022/03/01 10:32:25;;;;;;;15.82;4.20;;;;;;;14.53;21.40;100747.88;5068007;28;20044;-73
2022/03/01 10:35:03;;;;;;;15.77;4.43;;;;;;;14.72;21.15;100753.59;5072679;28;20072;-73
2022/03/01 10:37:31;;;;;;;18.38;4.28;;;;;;;15.00;20.87;100750.50;5069123;28;20048;-71
2022/03/01 10:40:15;;;;;;;15.10;4.13;;;;;;;15.23;20.65;100743.53;5071871;28;20040;-72
2022/03/01 10:42:42;;;;;;;21.40;4.38;;;;;;;15.66;20.41;100754.00;5072507;28;20059;-72
2022/03/01 10:45:09;;;;;;;20.10;4.20;;;;;;;16.08;19.84;100735.25;5035874;28;20513;-71
2022/03/01 10:47:37;;;;;;;13.75;4.40;;;;;;;16.56;19.58;100740.03;5053250;28;20560;-72
2022/03/01 10:50:06;;;;;;;17.77;5.22;;;;;;;17.07;19.31;100736.97;5053378;28;20045;-74
2022/03/01 10:52:33;;;;;;;18.33;5.07;;;;;;;17.52;19.23;100731.94;5088372;28;20076;-71
2022/03/01 10:55:00;;;;;;;16.40;4.72;;;;;;;17.91;18.58;100738.25;5074027;28;20049;-72
2022/03/01 10:57:26;;;;;;;23.13;4.80;;;;;;;18.22;18.45;100725.88;5073084;28;20048;-71
2022/03/01 10:59:55;;;;;;;16.35;5.30;;;;;;;18.46;18.22;100709.13;5072807;28;20045;-73
2022/03/01 11:02:22;;;;;;;18.95;5.22;;;;;;;18.67;17.90;100723.38;5065933;28;20105;-77
2022/03/01 11:04:49;;;;;;;22.85;6.07;;;;;;;18.58;17.12;100716.09;5087080;28;20052;-76
2022/03/01 11:07:18;;;;;;;18.45;4.85;;;;;;;18.28;17.50;100714.41;5069674;28;20049;-73
2022/03/01 11:09:45;;;;;;;21.58;5.18;;;;;;;17.95;17.57;100711.66;5051277;28;20048;-72
2022/03/01 11:12:12;;;;;;;22.88;5.00;;;;;;;18.13;17.52;100718.28;5070399;28;20040;-73
2022/03/01 11:14:50;;;;;;;33.92;4.80;;;;;;;17.61;17.92;100709.16;5078745;28;20041;-73
2022/03/01 11:17:22;;;;;;;22.95;4.45;;;;;;;17.04;18.04;100713.56;5062769;28;20055;-73
2022/03/01 11:19:56;;;;;;;19.95;5.00;;;;;;;16.61;18.63;100702.44;5069267;28;20226;-73
2022/03/01 11:22:27;;;;;;;21.52;4.18;;;;;;;16.68;18.16;100694.63;5062925;28;20110;-73
2022/03/01 11:24:54;;;;;;;15.25;4.72;;;;;;;16.14;18.39;100705.69;5058418;28;20129;-73
2022/03/01 11:27:22;;;;;;;19.17;4.10;;;;;;;16.05;18.45;100704.66;5065213;28;20094;-74
2022/03/01 11:29:49;;;;;;;16.83;4.10;;;;;;;16.14;18.15;100702.91;5066195;28;20445;-73
2022/03/01 11:32:16;;;;;;;;;;;;;;;16.10;18.36;100699.91;5083655;28;20056;-72
2022/03/01 11:34:43;;;;;;;;;;;;;;;15.74;18.52;100700.19;5065256;28;20412;-72
2022/03/01 11:37:15;;;;;;;21.45;4.68;;;;;;;15.54;18.71;100690.97;5065194;28;19924;-73